Terminal Aerodrome Forecast
Issued by NWS

Home | Current Version | Previous Version | Text Only | Print | Product List | Glossary On
Versions: 1 2 3 4 5 6 7 8 9 10 11 12 13 14 15 16 17 18 19 20 21
000
FTUS43 KMQT 291142 AAA
TAFCMX
TAF AMD
KCMX 291142Z 2912/3012 21008KT P6SM BKN130
     FM291500 21006KT P6SM -SHRA OVC060
     FM291800 22006KT 5SM -SHRA OVC024
     FM292100 30006KT 4SM -RA BR OVC018
     FM292300 33008KT 4SM -RA BR OVC008
     FM300100 34008KT 5SM -RA BR OVC014
     FM300500 35011G17KT P6SM OVC045=

USA.gov is the U.S. government's official web portal to all federal, state and local government web resources and services.